createdAt,value
2023-05-16T00:09:50.750Z,12.24
2023-05-16T00:20:14.165Z,12.22
2023-05-16T00:30:35.565Z,12.18
2023-05-16T00:40:56.911Z,12.07
2023-05-16T00:51:18.698Z,12.16
2023-05-16T01:01:41.082Z,12.03
2023-05-16T01:12:03.170Z,12.01
2023-05-16T01:22:31.152Z,11.94
2023-05-16T01:32:52.841Z,11.86
2023-05-16T01:43:17.064Z,11.74
2023-05-16T01:53:39.031Z,11.65
2023-05-16T02:04:00.704Z,11.52
2023-05-16T02:14:22.123Z,11.37
2023-05-16T02:24:43.551Z,11.26
2023-05-16T02:35:05.183Z,11.14
2023-05-16T02:45:27.061Z,10.90
2023-05-16T02:55:48.652Z,10.76
2023-05-16T03:06:10.143Z,10.61
2023-05-16T03:16:31.861Z,10.46
2023-05-16T03:26:53.249Z,10.34
2023-05-16T03:37:16.038Z,10.27
2023-05-16T03:47:37.494Z,10.22
2023-05-16T03:57:58.870Z,10.13
2023-05-16T04:08:20.220Z,10.02
2023-05-16T04:18:41.684Z,10.07
2023-05-16T04:29:03.631Z,10.06
2023-05-16T04:39:24.991Z,10.01
2023-05-16T04:49:46.458Z,9.97
2023-05-16T05:00:09.004Z,10.16
2023-05-16T05:10:31.218Z,10.25
2023-05-16T05:20:52.810Z,10.32
2023-05-16T05:31:14.200Z,10.47
2023-05-16T05:41:35.698Z,10.62
2023-05-16T05:51:57.130Z,10.73
2023-05-16T06:02:18.590Z,10.94
2023-05-16T06:12:40.033Z,11.13
2023-05-16T06:23:01.424Z,11.38
2023-05-16T06:33:22.796Z,11.64
2023-05-16T06:43:44.187Z,11.75
2023-05-16T06:54:05.631Z,11.86
2023-05-16T07:04:27.235Z,12.22
2023-05-16T07:14:48.685Z,12.16
2023-05-16T07:25:12.769Z,12.26
2023-05-16T07:35:34.548Z,12.62
2023-05-16T07:45:56.044Z,12.49
2023-05-16T07:56:17.807Z,12.27
2023-05-16T08:06:39.348Z,12.62
2023-05-16T08:17:00.822Z,12.86
2023-05-16T08:27:22.291Z,13.29
2023-05-16T08:37:43.714Z,13.13
2023-05-16T08:48:07.202Z,13.36
2023-05-16T08:58:30.525Z,13.46
2023-05-16T09:08:52.365Z,13.56
2023-05-16T09:19:14.209Z,13.92
2023-05-16T09:29:37.034Z,14.31
2023-05-16T09:40:00.381Z,13.32
2023-05-16T09:50:21.807Z,12.32
2023-05-16T10:00:43.300Z,12.76
2023-05-16T10:11:05.818Z,13.36
2023-05-16T10:21:28.377Z,13.67
2023-05-16T10:31:50.127Z,12.87
2023-05-16T10:42:14.274Z,12.64
2023-05-16T10:52:35.731Z,12.74
2023-05-16T11:03:06.574Z,12.57
2023-05-16T11:13:28.793Z,12.40
2023-05-16T11:24:09.037Z,13.28
2023-05-16T11:34:31.053Z,13.04
2023-05-16T11:45:04.381Z,12.40
2023-05-16T11:55:40.991Z,11.83
2023-05-16T12:06:06.521Z,11.99
2023-05-16T12:16:28.128Z,12.51
2023-05-16T12:26:49.646Z,12.76
2023-05-16T12:37:11.366Z,13.05
2023-05-16T12:47:37.454Z,13.01
2023-05-16T12:58:01.154Z,12.26
2023-05-16T13:08:23.549Z,12.15
2023-05-16T13:18:45.123Z,12.60
2023-05-16T13:29:06.644Z,13.09
2023-05-16T13:39:28.063Z,13.71
2023-05-16T13:49:49.450Z,13.72
2023-05-16T14:10:38.521Z,13.95
2023-05-16T14:21:00.005Z,14.19
2023-05-16T14:31:21.612Z,14.02
2023-05-16T14:41:43.220Z,14.01
2023-05-16T14:52:04.768Z,13.79
2023-05-16T15:02:27.040Z,13.51
2023-05-16T15:12:48.534Z,13.40
2023-05-16T15:23:09.953Z,13.47
2023-05-16T15:33:31.406Z,13.97
2023-05-16T15:43:52.965Z,13.89
2023-05-16T15:54:14.501Z,13.18
2023-05-16T16:04:35.974Z,12.82
2023-05-16T16:14:57.421Z,13.24
2023-05-16T16:25:19.174Z,13.90
2023-05-16T16:35:40.632Z,14.19
2023-05-16T16:46:02.123Z,13.97
2023-05-16T16:56:23.565Z,14.40
2023-05-16T17:06:46.572Z,13.97
2023-05-16T17:17:09.891Z,13.62
2023-05-16T17:27:32.075Z,13.56
2023-05-16T17:37:53.804Z,13.38
2023-05-16T17:48:15.420Z,13.35
2023-05-16T17:58:36.938Z,13.31
2023-05-16T18:08:58.434Z,13.25
2023-05-16T18:19:19.923Z,13.18
2023-05-16T18:29:42.193Z,13.07
2023-05-16T18:40:03.746Z,12.93
2023-05-16T18:50:25.934Z,12.83
2023-05-16T19:00:47.533Z,12.76
2023-05-16T19:11:08.944Z,12.69
2023-05-16T19:21:30.456Z,12.62
2023-05-16T19:31:51.929Z,12.57
2023-05-16T19:42:13.404Z,12.52
2023-05-16T19:52:35.036Z,12.51
2023-05-16T20:02:56.564Z,12.44
2023-05-16T20:13:20.406Z,12.36
2023-05-16T20:23:41.812Z,12.31
2023-05-16T20:34:03.253Z,12.32
2023-05-16T20:44:24.708Z,12.22
2023-05-16T20:54:46.088Z,12.15
2023-05-16T21:05:23.232Z,12.27
2023-05-16T21:15:46.815Z,12.28
2023-05-16T21:26:08.328Z,12.22
2023-05-16T21:36:29.747Z,12.16
2023-05-16T21:46:51.376Z,12.09
2023-05-16T21:57:12.772Z,12.05
2023-05-16T22:07:34.188Z,12.07
2023-05-16T22:17:57.501Z,12.05
2023-05-16T22:28:18.984Z,11.97
2023-05-16T22:38:40.431Z,12.01
2023-05-16T22:49:02.067Z,11.96
2023-05-16T22:59:23.526Z,11.85
2023-05-16T23:09:44.948Z,11.75
2023-05-16T23:20:06.859Z,11.75
2023-05-16T23:30:28.303Z,11.68
2023-05-16T23:40:49.709Z,11.66
2023-05-16T23:51:11.190Z,11.67
